Time;durP1;ratioP1;P1;durP2;ratioP2;P2;SDS_P1;SDS_P2;PMS_P1;PMS_P2;Temp;Humidity;BMP_temperature;BMP_pressure;BME280_temperature;BME280_humidity;BME280_pressure;Samples;Min_cycle;Max_cycle;Signal;HPM_P1;HPM_P2
2021/08/24 00:05:36;;;;;;;;;;;;;;;11.09;100.00;101782.78;5094424;28;19938;-64
2021/08/24 00:08:03;;;;;;;;;;;;;;;11.07;100.00;101783.88;5091845;28;20014;-64
2021/08/24 00:10:30;;;;;;;;;;;;;;;11.00;100.00;101786.13;5091648;28;20030;-64
2021/08/24 00:12:57;;;;;;;;;;;;;;;10.98;100.00;101790.75;5091922;28;20128;-64
2021/08/24 00:15:23;;;;;;;;;;;;;;;10.95;100.00;101790.97;5091642;28;20027;-64
2021/08/24 00:17:50;;;;;;;;;;;;;;;10.94;100.00;101786.50;5091726;28;20019;-64
2021/08/24 00:20:16;;;;;;;;;;;;;;;10.92;100.00;101785.75;5091612;28;20356;-63
2021/08/24 00:22:43;;;;;;;;;;;;;;;10.91;100.00;101789.44;5091422;28;19974;-63
2021/08/24 00:25:12;;;;;;;;;;;;;;;10.87;100.00;101786.03;5091856;28;19923;-64
2021/08/24 00:27:38;;;;;;;;;;;;;;;10.82;100.00;101790.91;5091507;28;19931;-63
2021/08/24 00:30:05;;;;;;;;;;;;;;;10.77;100.00;101796.66;5092043;28;19924;-63
2021/08/24 00:32:31;;;;;;;;;;;;;;;10.76;100.00;101792.19;5091662;28;19982;-63
2021/08/24 00:34:57;;;;;;;;;;;;;;;10.74;100.00;101796.81;5091137;28;20004;-64
2021/08/24 00:37:24;;;;;;;;;;;;;;;10.68;100.00;101789.97;5091476;28;20014;-65
2021/08/24 00:39:52;;;;;;;;;;;;;;;10.64;100.00;101798.41;5091165;28;20318;-65
2021/08/24 00:42:19;;;;;;;;;;;;;;;10.60;100.00;101802.31;5091392;28;20367;-63
2021/08/24 00:44:46;;;;;;;;;;;;;;;10.57;100.00;101802.47;5091393;28;19924;-65
2021/08/24 00:47:14;;;;;;;;;;;;;;;10.52;100.00;101806.34;5091000;28;20015;-63
2021/08/24 00:49:40;;;;;;;;;;;;;;;10.55;100.00;101794.44;5091567;28;19960;-65
2021/08/24 00:52:09;;;;;;;;;;;;;;;10.55;100.00;101806.19;5090884;28;19924;-64
2021/08/24 00:54:36;;;;;;;;;;;;;;;10.55;100.00;101798.03;5073097;28;20011;-65
2021/08/24 00:57:07;;;;;;;;;;;;;;;10.53;100.00;101807.25;5090554;28;19924;-62
2021/08/24 00:59:33;;;;;;;;;;;;;;;10.51;100.00;101801.03;5091284;28;20395;-64
2021/08/24 01:01:59;;;;;;;;;;;;;;;10.49;100.00;101801.13;5091032;28;20300;-72
2021/08/24 01:04:26;;;;;;;;;;;;;;;10.52;100.00;101805.50;5091059;28;20343;-72
2021/08/24 01:06:55;;;;;;;;;;;;;;;10.47;100.00;101813.91;5091037;28;20014;-72
2021/08/24 01:09:29;;;;;;;;;;;;;;;10.42;100.00;101810.63;5095037;28;20018;-72
2021/08/24 01:11:59;;;;;;;;;;;;;;;10.42;100.00;101812.47;5095523;28;20022;-72
2021/08/24 01:14:33;;;;;;;;;;;;;;;10.34;100.00;101816.53;5095296;28;19928;-72
2021/08/24 01:17:02;;;;;;;;;;;;;;;10.37;100.00;101816.34;5094636;28;20240;-72
2021/08/24 01:19:49;;;;;;;;;;;;;;;10.41;100.00;101816.16;5095280;28;19972;-72
2021/08/24 01:22:22;;;;;;;;;;;;;;;10.41;100.00;101817.03;5060748;28;19954;-72
2021/08/24 01:24:51;;;;;;;;;;;;;;;10.40;100.00;101815.28;5095310;28;20288;-72
2021/08/24 01:27:24;;;;;;;;;;;;;;;10.37;100.00;101819.06;5094626;28;20011;-72
2021/08/24 01:30:14;;;;;;;;;;;;;;;10.36;100.00;101821.88;5094990;28;20011;-72
2021/08/24 01:32:54;;;;;;;;;;;;;;;10.35;100.00;101820.13;5074037;28;19963;-72
2021/08/24 01:35:26;;;;;;;;;;;;;;;10.34;100.00;101829.22;5094348;28;20019;-72
2021/08/24 01:38:01;;;;;;;;;;;;;;;10.28;100.00;101821.47;5094693;28;20004;-72
2021/08/24 01:40:36;;;;;;;;;;;;;;;10.29;100.00;101823.19;5094692;28;19924;-72
2021/08/24 01:43:03;;;;;;;;;;;;;;;10.30;100.00;101828.56;5094647;28;19928;-72
2021/08/24 01:45:33;;;;;;;;;;;;;;;10.32;100.00;101831.16;5094461;28;20459;-72
2021/08/24 01:48:02;;;;;;;;;;;;;;;10.28;100.00;101830.47;5094370;28;19971;-72
2021/08/24 01:50:32;;;;;;;;;;;;;;;10.27;100.00;101830.56;5094704;28;20419;-72
2021/08/24 01:53:08;;;;;;;;;;;;;;;10.27;100.00;101833.28;5094139;28;19974;-72
2021/08/24 01:55:38;;;;;;;;;;;;;;;10.23;100.00;101829.88;5094558;28;20015;-72
2021/08/24 01:58:08;;;;;;;;;;;;;;;10.22;100.00;101826.31;5093982;28;20027;-72
2021/08/24 02:00:37;;;;;;;;;;;;;;;10.25;100.00;101829.78;5093666;28;19959;-72
2021/08/24 02:03:09;;;;;;;;;;;;;;;10.22;100.00;101828.13;5092793;28;19923;-72
2021/08/24 02:05:38;;;;;;;;;;;;;;;10.19;100.00;101826.47;5093161;28;20018;-72
2021/08/24 02:08:07;;;;;;;;;;;;;;;10.14;100.00;101828.63;5092478;28;20467;-66
2021/08/24 02:10:34;;;;;;;;;;;;;;;10.15;100.00;101832.19;5093025;28;19963;-66
2021/08/24 02:13:01;;;;;;;;;;;;;;;10.10;100.00;101832.50;5093107;28;20285;-66
2021/08/24 02:15:30;;;;;;;;;;;;;;;10.10;100.00;101832.50;5092648;28;19930;-65
2021/08/24 02:17:57;;;;;;;;;;;;;;;10.09;100.00;101832.56;5092480;28;19952;-65
2021/08/24 02:20:25;;;;;;;;;;;;;;;10.11;100.00;101836.06;5092672;28;20459;-65
2021/08/24 02:22:54;;;;;;;;;;;;;;;10.08;100.00;101841.69;5092840;28;19959;-66
2021/08/24 02:25:24;;;;;;;;;;;;;;;10.05;100.00;101843.63;5092492;28;20019;-65
2021/08/24 02:27:54;;;;;;;;;;;;;;;10.06;100.00;101841.78;5092498;28;20352;-70
2021/08/24 02:30:20;;;;;;;;;;;;;;;10.05;100.00;101837.34;5092635;28;20023;-69
2021/08/24 02:32:49;;;;;;;;;;;;;;;10.07;100.00;101843.53;5092389;28;20446;-70
2021/08/24 02:35:20;;;;;;;;;;;;;;;10.06;100.00;101841.78;5092625;28;19928;-69
2021/08/24 02:37:49;;;;;;;;;;;;;;;10.05;100.00;101846.34;5092481;28;20387;-70
2021/08/24 02:40:18;;;;;;;;;;;;;;;10.07;100.00;101848.09;5092520;28;19956;-70
2021/08/24 02:42:48;;;;;;;;;;;;;;;10.11;100.00;101853.22;5092152;28;20014;-72
2021/08/24 02:45:22;;;;;;;;;;;;;;;10.09;100.00;101857.00;5092053;28;20435;-72
2021/08/24 02:47:48;;;;;;;;;;;;;;;10.08;100.00;101856.13;5092738;28;19963;-72
2021/08/24 02:50:14;;;;;;;;;;;;;;;10.07;100.00;101859.78;5092032;28;20023;-72
2021/08/24 02:52:41;;;;;;;;;;;;;;;10.03;100.00;101856.41;5092276;28;20027;-72
2021/08/24 02:55:08;;;;;;;;;;;;;;;10.01;100.00;101861.06;5092192;28;20019;-72
2021/08/24 02:57:35;;;;;;;;;;;;;;;10.02;100.00;101856.50;5092008;28;20007;-72
2021/08/24 03:00:03;;;;;;;;;;;;;;;9.97;100.00;101858.63;5032576;28;1681199;-72
2021/08/24 03:02:30;;;;;;;;;;;;;;;9.99;100.00;101853.97;5092755;28;20320;-72
2021/08/24 03:04:56;;;;;;;;;;;;;;;9.96;100.00;101856.88;5093198;28;20029;-72
2021/08/24 03:07:26;;;;;;;;;;;;;;;9.93;100.00;101857.03;5093024;28;20387;-72
2021/08/24 03:09:53;;;;;;;;;;;;;;;9.91;100.00;101850.84;5093214;28;20360;-72
2021/08/24 03:12:25;;;;;;;;;;;;;;;9.91;100.00;101859.00;5092888;28;20403;-72
2021/08/24 03:14:55;;;;;;;;;;;;;;;9.85;100.00;101861.09;5092731;28;20395;-64
2021/08/24 03:17:25;;;;;;;;;;;;;;;9.82;100.00;101858.59;5093031;28;20027;-64
2021/08/24 03:19:53;;;;;;;;;;;;;;;9.79;100.00;101856.03;5092469;28;19964;-64
2021/08/24 03:22:20;;;;;;;;;;;;;;;9.78;100.00;101864.28;5092583;28;20012;-64
2021/08/24 03:24:47;;;;;;;;;;;;;;;9.76;100.00;101858.09;5074690;28;20019;-65
2021/08/24 03:27:13;;;;;;;;;;;;;;;9.74;100.00;101852.75;5092308;28;20023;-64
2021/08/24 03:29:40;;;;;;;;;;;;;;;9.71;100.00;101855.63;5092633;28;19986;-64
2021/08/24 03:32:07;;;;;;;;;;;;;;;9.69;100.00;101861.16;5091794;28;20035;-64
2021/08/24 03:34:35;;;;;;;;;;;;;;;9.70;100.00;101862.00;5074223;28;20018;-65
2021/08/24 03:37:01;;;;;;;;;;;;;;;9.67;100.00;101863.09;5092230;28;19924;-64
2021/08/24 03:39:28;;;;;;;;;;;;;;;9.68;100.00;101869.38;5092285;28;20380;-65
2021/08/24 03:41:54;;;;;;;;;;;;;;;9.68;100.00;101885.66;5092491;28;20183;-64
2021/08/24 03:44:20;;;;;;;;;;;;;;;9.63;100.00;101882.31;5092075;28;20284;-69
2021/08/24 03:46:46;;;;;;;;;;;;;;;9.60;100.00;101887.94;5092258;28;20014;-70
2021/08/24 03:49:13;;;;;;;;;;;;;;;9.55;100.00;101885.47;5092106;28;20023;-70
2021/08/24 03:51:40;;;;;;;;;;;;;;;9.54;100.00;101889.19;5092322;28;20023;-66
2021/08/24 03:54:07;;;;;;;;;;;;;;;9.52;100.00;101883.81;5091944;28;20035;-66
2021/08/24 03:56:33;;;;;;;;;;;;;;;9.50;100.00;101880.34;5091641;28;19963;-69
2021/08/24 03:58:59;;;;;;;;;;;;;;;9.46;100.00;101886.03;5092062;28;20360;-69
2021/08/24 04:01:26;;;;;;;;;;;;;;;9.40;100.00;101891.81;5091777;28;20348;-64
2021/08/24 04:03:52;;;;;;;;;;;;;;;9.36;100.00;101889.25;5092096;28;20015;-64
2021/08/24 04:06:18;;;;;;;;;;;;;;;9.32;100.00;101895.81;5085840;28;20026;-64
2021/08/24 04:08:46;;;;;;;;;;;;;;;9.30;100.00;101894.16;5076827;28;20430;-65
2021/08/24 04:11:12;;;;;;;;;;;;;;;9.28;100.00;101896.09;5071497;28;20048;-64
2021/08/24 04:13:38;;;;;;;;;;;;;;;9.27;100.00;101902.47;5082930;28;20026;-64
2021/08/24 04:16:05;;;;;;;;;;;;;;;9.23;100.00;101899.06;5079315;28;20023;-65
2021/08/24 04:18:31;;;;;;;;;;;;;;;9.26;100.00;101903.44;5071352;28;20011;-65
2021/08/24 04:20:58;;;;;;;;;;;;;;;9.23;100.00;101906.31;5083071;28;20027;-65
2021/08/24 04:23:24;;;;;;;;;;;;;;;9.19;100.00;101906.50;5091396;28;20366;-65
2021/08/24 04:25:52;;;;;;;;;;;;;;;9.19;100.00;101911.94;5090667;28;19935;-64
2021/08/24 04:28:18;;;;;;;;;;;;;;;9.22;100.00;101916.31;5086772;28;20019;-64
2021/08/24 04:30:44;;;;;;;;;;;;;;;9.23;100.00;101911.75;5077330;28;19959;-65
2021/08/24 04:33:10;;;;;;;;;;;;;;;9.24;100.00;101916.22;5076790;28;19975;-64
2021/08/24 04:35:37;;;;;;;;;;;;;;;9.29;100.00;101914.13;5071085;28;20025;-64
2021/08/24 04:38:03;;;;;;;;;;;;;;;9.31;100.00;101915.78;5071352;28;19988;-69
2021/08/24 04:40:31;;;;;;;;;;;;;;;9.36;100.00;101926.34;5071831;28;19994;-69
2021/08/24 04:42:59;;;;;;;;;;;;;;;9.44;100.00;101921.34;5059419;28;19978;-69
2021/08/24 04:45:25;;;;;;;;;;;;;;;9.48;100.00;101922.91;5086225;28;20011;-64
2021/08/24 04:47:51;;;;;;;;;;;;;;;9.53;100.00;101922.66;5072032;28;20444;-63
2021/08/24 04:50:18;;;;;;;;;;;;;;;9.59;100.00;101924.13;5088402;28;19987;-64
2021/08/24 04:52:44;;;;;;;;;;;;;;;9.64;100.00;101927.47;5090794;28;19968;-64
2021/08/24 04:55:11;;;;;;;;;;;;;;;9.73;100.00;101929.63;5082534;28;19968;-63
2021/08/24 04:57:38;;;;;;;;;;;;;;;9.83;100.00;101935.38;5090312;28;19923;-64
2021/08/24 05:00:06;;;;;;;;;;;;;;;9.91;100.00;101940.38;5072312;28;20019;-69
2021/08/24 05:02:32;;;;;;;;;;;;;;;10.05;100.00;101935.00;5076766;28;19967;-70
2021/08/24 05:04:59;;;;;;;;;;;;;;;10.22;100.00;101934.84;5070849;28;19924;-64
2021/08/24 05:07:25;;;;;;;;;;;;;;;10.40;100.00;101932.00;5080984;28;20479;-64
2021/08/24 05:09:51;;;;;;;;;;;;;;;10.52;100.00;101930.38;5084698;28;19924;-73
2021/08/24 05:12:17;;;;;;;;;;;;;;;10.62;100.00;101937.00;5070848;28;20299;-69
2021/08/24 05:14:44;;;;;;;;;;;;;;;10.71;100.00;101938.25;5073015;28;19932;-69
2021/08/24 05:17:11;;;;;;;;;;;;;;;10.84;100.00;101935.66;5071646;28;19932;-67
2021/08/24 05:19:38;;;;;;;;;;;;;;;10.96;100.00;101932.16;5091059;28;20023;-63
2021/08/24 05:22:04;;;;;;;;;;;;;;;11.11;100.00;101935.72;5088204;28;19978;-64
2021/08/24 05:24:30;;;;;;;;;;;;;;;11.28;100.00;101934.63;5082140;28;20020;-69
2021/08/24 05:26:56;;;;;;;;;;;;;;;11.46;100.00;101937.97;5077995;28;20423;-64
2021/08/24 05:29:23;;;;;;;;;;;;;;;11.65;100.00;101932.22;5083267;28;19955;-63
2021/08/24 05:31:49;;;;;;;;;;;;;;;11.88;100.00;101938.81;5090989;28;19924;-69
2021/08/24 05:34:17;;;;;;;;;;;;;;;12.14;100.00;101925.31;5090547;28;20026;-68
2021/08/24 05:36:43;;;;;;;;;;;;;;;12.37;100.00;101929.16;5090910;28;20433;-68
2021/08/24 05:39:09;;;;;;;;;;;;;;;12.55;100.00;101923.41;5090559;28;20038;-68
2021/08/24 05:41:37;;;;;;;;;;;;;;;12.85;100.00;101916.75;5090530;28;20483;-68
2021/08/24 05:44:03;;;;;;;;;;;;;;;13.22;100.00;101920.38;5090432;28;20018;-69
2021/08/24 05:46:30;;;;;;;;;;;;;;;13.55;100.00;101915.31;5090330;28;19960;-64
2021/08/24 05:48:56;;;;;;;;;;;;;;;13.94;100.00;101909.66;5090825;28;19925;-64
2021/08/24 05:51:26;;;;;;;;;;;;;;;14.21;100.00;101902.03;5090682;28;20030;-64
2021/08/24 05:53:52;;;;;;;;;;;;;;;14.51;100.00;101894.28;5091858;28;20011;-65
2021/08/24 05:56:20;;;;;;;;;;;;;;;14.87;100.00;101898.69;5094254;28;19924;-63
2021/08/24 05:58:47;;;;;;;;;;;;;;;15.22;100.00;101896.81;5093880;28;20387;-66
2021/08/24 06:01:17;;;;;;;;;;;;;;;15.43;100.00;101904.22;5094187;28;19977;-68
2021/08/24 06:03:43;;;;;;;;;;;;;;;15.69;100.00;101900.16;5094018;28;19967;-69
2021/08/24 06:06:16;;;;;;;;;;;;;;;15.90;100.00;101897.50;5094021;28;20431;-69
2021/08/24 06:08:45;;;;;;;;;;;;;;;16.15;100.00;101913.69;5094151;28;20030;-68
2021/08/24 06:11:15;;;;;;;;;;;;;;;16.28;100.00;101906.16;5093833;28;19964;-69
2021/08/24 06:13:42;;;;;;;;;;;;;;;16.64;100.00;101905.81;5093914;28;20004;-67
2021/08/24 06:16:08;;;;;;;;;;;;;;;16.91;100.00;101902.50;5093640;28;20015;-67
2021/08/24 06:18:36;;;;;;;;;;;;;;;17.09;100.00;101907.31;5093947;28;20384;-67
2021/08/24 06:21:02;;;;;;;;;;;;;;;17.17;100.00;101902.00;5093951;28;19924;-62
2021/08/24 06:23:28;;;;;;;;;;;;;;;17.22;100.00;101905.19;5093617;28;20011;-62
2021/08/24 06:25:56;;;;;;;;;;;;;;;17.50;100.00;101898.03;5093846;28;20076;-62
2021/08/24 06:28:23;;;;;;;;;;;;;;;17.79;100.00;101902.69;5093374;28;19935;-62
2021/08/24 06:30:49;;;;;;;;;;;;;;;17.93;100.00;101908.81;5093861;28;19955;-62
2021/08/24 06:33:16;;;;;;;;;;;;;;;18.16;100.00;101904.75;5093222;28;19960;-63
2021/08/24 06:35:42;;;;;;;;;;;;;;;18.37;100.00;101909.19;5093534;28;19969;-64
2021/08/24 06:38:09;;;;;;;;;;;;;;;18.63;100.00;101905.84;5093441;28;20030;-64
2021/08/24 06:40:35;;;;;;;;;;;;;;;18.56;100.00;101911.06;5093270;28;20011;-64
2021/08/24 06:43:03;;;;;;;;;;;;;;;18.69;100.00;101910.72;5093355;28;20451;-64
2021/08/24 06:45:33;;;;;;;;;;;;;;;18.84;100.00;101917.50;5093217;28;19932;-63
2021/08/24 06:47:59;;;;;;;;;;;;;;;18.92;100.00;101915.88;5093221;28;19960;-63
2021/08/24 06:50:27;;;;;;;;;;;;;;;19.12;100.00;101919.41;5093151;28;19956;-63
2021/08/24 06:52:53;;;;;;;;;;;;;;;19.35;100.00;101911.66;5093131;28;19974;-64
2021/08/24 06:55:22;;;;;;;;;;;;;;;19.47;100.00;101923.28;5093366;28;20031;-64
2021/08/24 06:57:49;;;;;;;;;;;;;;;19.88;100.00;101918.25;5092964;28;20018;-64
2021/08/24 07:00:18;;;;;;;;;;;;;;;20.03;100.00;101924.06;5093134;28;20010;-72
2021/08/24 07:02:45;;;;;;;;;;;;;;;20.40;100.00;101923.88;5093105;28;20349;-72
2021/08/24 07:05:12;;;;;;;;;;;;;;;20.63;100.00;101925.22;5091633;28;19974;-72
2021/08/24 07:07:38;;;;;;;;;;;;;;;20.64;100.00;101927.81;5092988;28;20360;-68
2021/08/24 07:10:05;;;;;;;;;;;;;;;20.71;100.00;101931.72;5092296;28;19924;-64
2021/08/24 07:12:32;;;;;;;;;;;;;;;20.61;100.00;101930.91;5092893;28;19956;-64
2021/08/24 07:14:58;;;;;;;;;;;;;;;20.65;100.00;101934.22;5092835;28;20362;-64
2021/08/24 07:17:26;;;;;;;;;;;;;;;20.64;100.00;101933.34;5092814;28;19959;-72
2021/08/24 07:19:53;;;;;;;;;;;;;;;20.66;100.00;101933.22;5092998;28;19924;-68
2021/08/24 07:22:19;;;;;;;;;;;;;;;20.25;100.00;101933.75;5092286;28;20031;-72
2021/08/24 07:24:45;;;;;;;;;;;;;;;20.78;100.00;101934.69;5092643;28;19981;-72
2021/08/24 07:27:12;;;;;;;;;;;;;;;20.64;100.00;101938.00;5092290;28;20434;-72
2021/08/24 07:29:38;;;;;;;;;;;;;;;20.77;100.00;101938.47;5092334;28;20018;-72
2021/08/24 07:32:06;;;;;;;;;;;;;;;20.94;100.00;101936.69;5092522;28;19934;-71
2021/08/24 07:34:34;;;;;;;;;;;;;;;21.17;100.00;101931.44;5092329;28;19963;-72
2021/08/24 07:37:00;;;;;;;;;;;;;;;21.73;100.00;101942.88;5091882;28;20014;-72
2021/08/24 07:39:26;;;;;;;;;;;;;;;21.88;100.00;101937.56;5092178;28;19932;-71
2021/08/24 07:41:53;;;;;;;;;;;;;;;21.55;100.00;101934.72;5092543;28;20011;-68
2021/08/24 07:44:23;;;;;;;;;;;;;;;21.64;100.00;101937.50;5092173;28;20391;-68
2021/08/24 07:46:49;;;;;;;;;;;;;;;21.75;100.00;101937.19;5091721;28;19962;-69
2021/08/24 07:49:15;;;;;;;;;;;;;;;21.68;100.00;101936.13;5092031;28;20019;-68
2021/08/24 07:51:44;;;;;;;;;;;;;;;21.90;100.00;101938.25;5092150;28;19924;-68
2021/08/24 07:54:10;;;;;;;;;;;;;;;22.09;100.00;101936.22;5092044;28;19960;-68
2021/08/24 07:56:36;;;;;;;;;;;;;;;21.88;100.00;101942.22;5091797;28;20379;-68
2021/08/24 07:59:03;;;;;;;;;;;;;;;21.94;100.00;101937.91;5091767;28;20022;-68
2021/08/24 08:01:29;;;;;;;;;;;;;;;22.53;100.00;101944.19;5091782;28;19963;-69
2021/08/24 08:03:55;;;;;;;;;;;;;;;22.66;100.00;101937.22;5091762;28;19935;-65
2021/08/24 08:06:22;;;;;;;;;;;;;;;22.34;98.43;101950.03;5091560;28;19964;-64
2021/08/24 08:08:49;;;;;;;;;;;;;;;22.02;98.06;101952.63;5091595;28;19931;-65
2021/08/24 08:11:16;;;;;;;;;;;;;;;22.45;99.97;101951.59;5091864;28;20027;-65
2021/08/24 08:13:42;;;;;;;;;;;;;;;22.10;98.67;101953.66;5091694;28;19928;-65
2021/08/24 08:16:08;;;;;;;;;;;;;;;22.36;100.00;101948.00;5090990;28;20022;-65
2021/08/24 08:18:34;;;;;;;;;;;;;;;22.29;97.26;101956.09;5091638;28;19993;-64
2021/08/24 08:21:01;;;;;;;;;;;;;;;22.55;97.71;101946.75;5091421;28;19976;-64
2021/08/24 08:23:27;;;;;;;;;;;;;;;22.47;98.98;101955.94;5091457;28;20031;-65
2021/08/24 08:25:55;;;;;;;;;;;;;;;22.59;94.52;101952.81;5091338;28;20362;-65
2021/08/24 08:28:21;;;;;;;;;;;;;;;22.82;93.45;101951.06;5091249;28;19924;-72
2021/08/24 08:30:48;;;;;;;;;;;;;;;23.18;94.56;101953.41;5091619;28;20451;-72
2021/08/24 08:33:14;;;;;;;;;;;;;;;22.95;88.47;101958.78;5091127;28;19974;-72
2021/08/24 08:35:41;;;;;;;;;;;;;;;23.19;86.97;101960.66;5091451;28;20358;-72
2021/08/24 08:38:07;;;;;;;;;;;;;;;23.45;88.05;101951.22;5091095;28;20374;-72
2021/08/24 08:40:38;;;;;;;;;;;;;;;23.31;87.20;101958.38;5091288;28;20022;-71
2021/08/24 08:43:08;;;;;;;;;;;;;;;23.33;90.91;101958.19;5075717;28;19950;-74
2021/08/24 08:45:40;;;;;;;;;;;;;;;23.05;84.60;101964.16;5089546;28;19977;-65
2021/08/24 08:48:19;;;;;;;;;;;;;;;22.59;93.95;101966.66;5077922;28;20023;-63
2021/08/24 08:50:46;;;;;;;;;;;;;;;22.65;95.00;101961.28;5069857;28;19967;-64
2021/08/24 08:53:18;;;;;;;;;;;;;;;22.73;90.46;101955.72;5070115;28;19924;-66
2021/08/24 08:55:48;;;;;;;;;;;;;;;22.80;88.95;101972.50;5070540;28;20047;-66
2021/08/24 08:58:27;;;;;;;;;;;;;;;23.20;90.63;101961.53;5070105;28;20479;-66
2021/08/24 09:00:56;;;;;;;;;;;;;;;23.05;88.58;101964.16;5070632;28;19928;-70
2021/08/24 09:03:24;;;;;;;;;;;;;;;22.86;87.98;101966.28;5069733;28;20367;-64
2021/08/24 09:05:50;;;;;;;;;;;;;;;22.75;84.38;101972.16;5070273;28;20023;-64
2021/08/24 09:08:18;;;;;;;;;;;;;;;22.85;85.15;101974.72;5083363;28;20027;-64
2021/08/24 09:10:46;;;;;;;;;;;;;;;23.29;85.25;101967.91;5072308;28;20023;-67
2021/08/24 09:13:14;;;;;;;;;;;;;;;23.52;85.81;101966.06;5079102;28;20360;-68
2021/08/24 09:15:44;;;;;;;;;;;;;;;23.21;88.07;101983.50;5070761;28;20102;-68
2021/08/24 09:18:13;;;;;;;;;;;;;;;23.77;91.59;101971.50;5081487;28;19931;-69
2021/08/24 09:20:44;;;;;;;;;;;;;;;24.20;81.41;101979.38;5083944;28;20007;-68
2021/08/24 09:23:13;;;;;;;;;;;;;;;24.27;72.57;101979.50;5069882;28;19924;-68
2021/08/24 09:25:49;;;;;;;;;;;;;;;24.11;76.12;101981.34;5089257;28;20027;-69
2021/08/24 09:28:19;;;;;;;;;;;;;;;23.69;67.99;101986.25;5089031;28;20026;-64
2021/08/24 09:30:46;;;;;;;;;;;;;;;23.63;72.29;101975.03;5094089;28;20477;-65
2021/08/24 09:33:13;;;;;;;;;;;;;;;23.62;75.81;101979.69;5093879;28;20014;-70
2021/08/24 09:35:42;;;;;;;;;;;;;;;24.01;71.62;101975.16;5077671;28;20311;-65
2021/08/24 09:38:12;;;;;;;;;;;;;;;24.28;70.89;101981.22;5075180;28;19925;-65
2021/08/24 09:40:41;;;;;;;;;;;;;;;23.99;74.30;101974.50;5084142;28;20014;-65
2021/08/24 09:43:18;;;;;;;;;;;;;;;24.22;73.11;101980.03;5093811;28;19927;-70
2021/08/24 09:45:45;;;;;;;;;;;;;;;24.69;73.97;101983.66;5084208;28;20058;-70
2021/08/24 09:48:12;;;;;;;;;;;;;;;24.13;75.45;101973.72;5093572;28;19931;-66
2021/08/24 09:50:40;;;;;;;;;;;;;;;23.00;78.37;101978.50;5085690;28;20015;-69
2021/08/24 09:53:08;;;;;;;;;;;;;;;23.51;85.44;101974.56;5088360;28;20379;-68
2021/08/24 09:55:37;;;;;;;;;;;;;;;23.35;84.24;101981.03;5091880;28;19935;-64
2021/08/24 09:58:06;;;;;;;;;;;;;;;22.99;87.09;101984.22;5092090;28;19924;-71
2021/08/24 10:00:38;;;;;;;;;;;;;;;22.82;90.79;101986.16;5091789;28;20112;-65
2021/08/24 10:03:19;;;;;;;;;;;;;;;23.57;81.66;101980.25;5079127;28;20012;-64
2021/08/24 10:05:47;;;;;;;;;;;;;;;23.18;70.98;101974.69;5074693;28;20024;-64
2021/08/24 10:08:28;;;;;;;;;;;;;;;23.17;76.89;101975.72;5073950;28;19960;-65
2021/08/24 10:11:00;;;;;;;;;;;;;;;23.10;73.77;101981.06;5091445;28;19946;-69
2021/08/24 10:13:30;;;;;;;;;;;;;;;23.78;76.94;101973.19;5086838;28;20373;-64
2021/08/24 10:16:03;;;;;;;;;;;;;;;24.37;77.43;101980.09;5073088;28;20340;-64
2021/08/24 10:18:30;;;;;;;;;;;;;;;24.63;65.19;101973.34;5082740;28;20043;-70
2021/08/24 10:21:00;;;;;;;;;;;;;;;24.98;63.49;101973.66;5093593;28;19963;-72
2021/08/24 10:23:28;;;;;;;;;;;;;;;25.44;64.07;101975.41;5091873;28;20009;-64
2021/08/24 10:25:56;;;;;;;;;;;;;;;25.65;58.13;101977.38;5082198;28;19963;-65
2021/08/24 10:28:25;;;;;;;;;;;;;;;25.72;53.97;101965.28;5081574;28;20018;-70
2021/08/24 10:30:53;;;;;;;;;;;;;;;25.70;47.13;101959.06;5087564;28;20027;-71
2021/08/24 10:33:29;;;;;;;;;;;;;;;26.31;54.44;101976.41;5085092;28;20019;-64
2021/08/24 10:35:59;;;;;;;;;;;;;;;25.56;48.37;101960.81;5072946;28;19925;-71
2021/08/24 10:38:36;;;;;;;;;;;;;;;25.84;53.44;101971.22;5076336;28;20046;-65
2021/08/24 10:41:02;;;;;;;;;;;;;;;25.32;52.39;101966.66;5090232;28;19931;-71
2021/08/24 10:43:29;;;;;;;;;;;;;;;25.23;53.79;101969.53;5080075;28;20229;-64
2021/08/24 10:46:04;;;;;;;;;;;;;;;24.68;61.06;101977.25;5090519;28;20011;-64
2021/08/24 10:48:32;;;;;;;;;;;;;;;23.87;61.93;101969.31;5090874;28;20463;-65
2021/08/24 10:51:03;;;;;;;;;;;;;;;23.83;66.47;101967.13;5092978;28;20348;-70
2021/08/24 10:53:36;;;;;;;;;;;;;;;23.27;74.82;101967.22;5073681;28;20467;-65
2021/08/24 10:56:07;;;;;;;;;;;;;;;22.64;80.72;101975.31;5072637;28;20016;-65
2021/08/24 10:58:36;;;;;;;;;;;;;;;21.79;75.42;101971.72;5061553;28;20022;-64
2021/08/24 11:01:04;;;;;;;;;;;;;;;22.18;81.33;101962.81;5088436;28;20372;-64
2021/08/24 11:03:46;;;;;;;;;;;;;;;22.59;70.35;101966.66;5072711;28;20027;-69
2021/08/24 11:06:19;;;;;;;;;;;;;;;22.59;76.08;101969.41;5072870;28;19925;-70
2021/08/24 11:08:49;;;;;;;;;;;;;;;23.30;59.98;101966.84;5072614;28;20482;-65
2021/08/24 11:11:23;;;;;;;;;;;;;;;24.20;62.59;101962.75;5077881;28;19954;-71
2021/08/24 11:13:54;;;;;;;;;;;;;;;24.87;57.24;101969.44;5090584;28;20015;-65
2021/08/24 11:16:29;;;;;;;;;;;;;;;25.57;51.05;101958.88;5081837;28;20046;-64
2021/08/24 11:19:04;;;;;;;;;;;;;;;25.72;53.17;101953.28;5086074;28;20001;-66
2021/08/24 11:21:36;;;;;;;;;;;;;;;24.23;54.84;101967.91;5079557;28;20010;-65
2021/08/24 11:24:20;;;;;;;;;;;;;;;23.43;59.37;101969.91;5085924;28;20021;-70
2021/08/24 11:26:50;;;;;;;;;;;;;;;22.44;63.37;101972.03;5074244;28;19956;-66
2021/08/24 11:29:24;;;;;;;;;;;;;;;22.19;70.81;101972.84;5079077;28;19924;-66
2021/08/24 11:31:53;;;;;;;;;;;;;;;22.41;71.51;101970.47;5073583;28;19968;-64
2021/08/24 11:34:22;;;;;;;;;;;;;;;23.43;70.89;101972.69;5072026;28;20019;-65
2021/08/24 11:36:53;;;;;;;;;;;;;;;24.06;59.56;101964.38;5071819;28;20372;-64
2021/08/24 11:39:22;;;;;;;;;;;;;;;24.53;51.81;101970.75;5071743;28;20360;-64
2021/08/24 11:41:50;;;;;;;;;;;;;;;25.06;53.87;101959.69;5090002;28;20279;-65
2021/08/24 11:44:18;;;;;;;;;;;;;;;25.41;56.72;101976.66;5071493;28;19932;-71
2021/08/24 11:46:47;;;;;;;;;;;;;;;24.49;61.40;101972.19;5053576;28;19924;-65
2021/08/24 11:49:18;;;;;;;;;;;;;;;24.06;64.15;101978.25;5082064;28;20023;-71
2021/08/24 11:51:49;;;;;;;;;;;;;;;25.00;63.94;101968.75;5082579;28;20004;-65
2021/08/24 11:54:19;;;;;;;;;;;;;;;25.42;58.81;101977.53;5065485;28;19924;-70
2021/08/24 11:56:50;;;;;;;;;;;;;;;25.52;57.43;101978.94;5074217;28;20012;-71
2021/08/24 11:59:20;;;;;;;;;;;;;;;26.02;57.33;101972.69;5080319;28;19925;-71
2021/08/24 12:01:48;;;;;;;;;;;;;;;25.86;51.81;101965.44;5086019;28;20019;-71
2021/08/24 12:04:15;;;;;;;;;;;;;;;25.85;49.43;101972.06;5082695;28;19963;-71
2021/08/24 12:06:43;;;;;;;;;;;;;;;25.66;51.23;101966.06;5088386;28;20360;-65
2021/08/24 12:09:13;;;;;;;;;;;;;;;25.34;53.99;101970.16;5082671;28;20039;-64
2021/08/24 12:11:43;;;;;;;;;;;;;;;25.64;50.80;101964.53;5071077;28;20018;-64
2021/08/24 12:14:25;;;;;;;;;;;;;;;26.17;48.68;101970.72;5072281;28;19998;-65
2021/08/24 12:17:01;;;;;;;;;;;;;;;26.80;47.13;101967.22;5070755;28;19928;-65
2021/08/24 12:19:29;;;;;;;;;;;;;;;27.27;45.91;101967.50;5080670;28;20005;-65
2021/08/24 12:21:56;;;;;;;;;;;;;;;26.73;41.97;101964.38;5089732;28;20349;-71
2021/08/24 12:24:50;;;;;;;;;;;;;;;26.68;45.86;101972.44;5071373;28;20031;-69
2021/08/24 12:27:43;;;;;;;;;;;;;;;25.60;44.45;101960.41;5086384;28;19970;-68
2021/08/24 12:30:13;;;;;;;;;;;;;;;25.26;43.21;101964.66;5073181;28;19978;-67
2021/08/24 12:32:54;;;;;;;;;;;;;;;26.04;46.84;101954.75;5071232;28;20023;-65
2021/08/24 12:35:29;;;;;;;;;;;;;;;26.67;43.67;101955.94;5072388;28;20054;-64
2021/08/24 12:37:57;;;;;;;;;;;;;;;26.43;44.92;101957.25;5071878;28;19933;-71
2021/08/24 12:40:32;;;;;;;;;;;;;;;26.77;43.77;101959.28;5070920;28;19964;-71
2021/08/24 12:46:23;;;;;;;;;;;;;;;26.36;40.48;101946.94;5088400;27;19987;-70
2021/08/24 12:49:04;;;;;;;;;;;;;;;27.14;39.20;101943.22;5088247;28;19977;-63